Time;durP1;ratioP1;P1;durP2;ratioP2;P2;SDS_P1;SDS_P2;PMS_P1;PMS_P2;Temp;Humidity;BMP_temperature;BMP_pressure;BME280_temperature;BME280_humidity;BME280_pressure;Samples;Min_cycle;Max_cycle;Signal;HPM_P1;HPM_P2
2023/03/26 18:42:19;;;;;;;7.10;1.85;;;;;;;;;;5068666;28;20380;-64
2023/03/26 18:44:47;;;;;;;4.57;1.90;;;;;;;;;;5068733;28;20057;-64
2023/03/26 18:47:14;;;;;;;9.02;2.42;;;;;;;;;;5055202;28;20087;-64
2023/03/26 18:49:42;;;;;;;11.52;2.20;;;;;;;;;;5070262;28;20029;-64
2023/03/26 18:52:12;;;;;;;9.60;2.10;;;;;;;;;;5069473;28;20095;-64
2023/03/26 18:54:38;;;;;;;11.15;2.63;;;;;;;;;;5053641;28;20033;-65
2023/03/26 18:57:09;;;;;;;9.77;2.20;;;;;;;;;;5054984;28;20378;-65
2023/03/26 18:59:40;;;;;;;11.30;2.28;;;;;;;;;;5064786;28;20025;-64
2023/03/26 19:02:07;;;;;;;3.33;1.48;;;;;;;;;;5059559;28;20044;-65
2023/03/26 19:04:35;;;;;;;8.27;1.98;;;;;;;;;;5067674;28;20036;-63
2023/03/26 19:07:03;;;;;;;6.88;1.83;;;;;;;;;;5067168;28;20017;-65
2023/03/26 19:09:29;;;;;;;11.07;2.03;;;;;;;;;;5053517;28;20591;-64
2023/03/26 19:11:56;;;;;;;8.85;2.05;;;;;;;;;;5060595;28;20025;-65
2023/03/26 19:14:24;;;;;;;5.05;1.70;;;;;;;;;;5059594;28;20036;-65
2023/03/26 19:16:55;;;;;;;13.05;2.00;;;;;;;;;;5052463;28;20012;-63
2023/03/26 19:19:22;;;;;;;7.50;2.67;;;;;;;;;;5054581;28;20017;-63
2023/03/26 19:21:48;;;;;;;9.52;2.10;;;;;;;;;;5052198;28;20028;-65
2023/03/26 19:24:15;;;;;;;10.73;2.08;;;;;;;;;;5053186;28;20394;-64
2023/03/26 19:26:41;;;;;;;9.32;2.60;;;;;;;;;;5047664;28;20028;-65
2023/03/26 19:29:11;;;;;;;7.93;2.05;;;;;;;;;;5066515;28;20028;-64
2023/03/26 19:31:39;;;;;;;9.02;2.17;;;;;;;;;;5067393;28;20481;-65
2023/03/26 19:34:12;;;;;;;4.95;1.95;;;;;;;;;;5067464;28;20029;-66
2023/03/26 19:36:56;;;;;;;5.07;1.55;;;;;;;;;;5066371;28;20028;-66
2023/03/26 19:39:22;;;;;;;8.10;1.95;;;;;;;;;;5050294;28;20024;-65
2023/03/26 19:41:50;;;;;;;5.57;1.60;;;;;;;;;;5047121;28;20049;-65
2023/03/26 19:44:16;;;;;;;4.95;1.75;;;;;;;;;;5047737;28;20032;-65
2023/03/26 19:46:44;;;;;;;6.00;1.95;;;;;;;;;;5047357;28;20021;-64
2023/03/26 19:49:25;;;;;;;12.77;2.67;;;;;;;;;;5046710;28;20025;-65
2023/03/26 19:51:52;;;;;;;3.88;1.88;;;;;;;;;;5043837;28;20025;-65
2023/03/26 19:54:18;;;;;;;9.20;2.00;;;;;;;;;;5049958;28;20033;-65
2023/03/26 19:56:44;;;;;;;10.32;2.05;;;;;;;;;;5052657;28;20104;-65
2023/03/26 19:59:11;;;;;;;7.85;2.40;;;;;;;;;;5048304;28;20068;-66
2023/03/26 20:01:37;;;;;;;4.85;2.00;;;;;;;;;;5052683;28;20404;-64
2023/03/26 20:04:05;;;;;;;3.65;1.45;;;;;;;;;;5046310;28;20096;-65
2023/03/26 20:06:32;;;;;;;6.40;1.63;;;;;;;;;;5033964;28;20025;-65
2023/03/26 20:08:58;;;;;;;9.65;1.80;;;;;;;;;;5037833;28;20133;-65
2023/03/26 20:11:32;;;;;;;6.35;1.70;;;;;;;;;;5051940;28;20025;-66
2023/03/26 20:13:58;;;;;;;7.15;2.03;;;;;;;;;;5053628;28;20036;-66
2023/03/26 20:16:32;;;;;;;9.05;2.63;;;;;;;;;;5053409;28;20502;-64
2023/03/26 20:19:01;;;;;;;4.63;1.77;;;;;;;;;;5053577;28;20040;-66
2023/03/26 20:21:27;;;;;;;5.15;1.58;;;;;;;;;;5052070;28;20036;-65
2023/03/26 20:23:54;;;;;;;8.05;1.80;;;;;;;;;;5050735;28;20021;-65
2023/03/26 20:26:21;;;;;;;8.05;2.28;;;;;;;;;;5033550;28;20456;-65
2023/03/26 20:28:47;;;;;;;5.55;1.92;;;;;;;;;;5033275;28;20097;-64
2023/03/26 20:31:15;;;;;;;5.40;2.13;;;;;;;;;;5033549;28;20026;-64
2023/03/26 20:33:41;;;;;;;3.17;1.63;;;;;;;;;;5033397;28;20029;-64
2023/03/26 20:36:13;;;;;;;6.93;1.90;;;;;;;;;;5033339;28;20021;-65
2023/03/26 20:38:40;;;;;;;9.80;2.00;;;;;;;;;;5033211;28;20188;-66
2023/03/26 20:41:09;;;;;;;6.25;1.90;;;;;;;;;;5033096;28;20052;-65
2023/03/26 20:43:36;;;;;;;5.40;2.22;;;;;;;;;;5032747;28;20072;-65
2023/03/26 20:46:02;;;;;;;6.65;1.95;;;;;;;;;;5031805;28;20612;-65
2023/03/26 20:48:28;;;;;;;5.32;1.77;;;;;;;;;;5033080;28;20033;-65
2023/03/26 20:50:55;;;;;;;7.63;1.92;;;;;;;;;;5033300;28;20397;-64
2023/03/26 20:53:22;;;;;;;3.88;1.80;;;;;;;;;;5033053;28;20030;-64
2023/03/26 20:55:49;;;;;;;4.88;1.80;;;;;;;;;;5031761;28;20037;-65
2023/03/26 20:58:22;;;;;;;6.65;1.75;;;;;;;;;;5032906;28;20029;-64
2023/03/26 21:00:49;;;;;;;5.40;2.22;;;;;;;;;;5032245;28;20114;-66
2023/03/26 21:03:16;;;;;;;7.93;1.90;;;;;;;;;;5032279;28;20030;-66
2023/03/26 21:05:42;;;;;;;6.95;1.52;;;;;;;;;;5032606;28;20123;-65
2023/03/26 21:08:14;;;;;;;6.80;1.95;;;;;;;;;;5032574;28;20025;-66
2023/03/26 21:10:40;;;;;;;8.88;1.77;;;;;;;;;;5032560;28;20029;-65
2023/03/26 21:13:17;;;;;;;7.25;1.73;;;;;;;;;;5032601;28;20053;-65
2023/03/26 21:15:44;;;;;;;6.20;1.75;;;;;;;;;;5032537;28;20036;-66
2023/03/26 21:18:10;;;;;;;4.72;1.90;;;;;;;;;;5031894;28;20099;-64
2023/03/26 21:20:36;;;;;;;8.57;2.30;;;;;;;;;;5032315;28;20033;-64
2023/03/26 21:23:08;;;;;;;6.43;1.70;;;;;;;;;;5032438;28;20033;-64
2023/03/26 21:25:53;;;;;;;6.60;1.77;;;;;;;;;;5032228;28;20435;-63
2023/03/26 21:28:25;;;;;;;4.20;1.60;;;;;;;;;;5032464;28;20025;-64
2023/03/26 21:30:51;;;;;;;5.68;1.55;;;;;;;;;;5032409;28;20025;-65
2023/03/26 21:33:18;;;;;;;4.07;1.40;;;;;;;;;;5031687;28;20052;-63
2023/03/26 21:35:51;;;;;;;7.07;2.55;;;;;;;;;;5032098;28;20172;-65
2023/03/26 21:38:23;;;;;;;4.38;1.90;;;;;;;;;;5031964;28;20192;-65
2023/03/26 21:40:50;;;;;;;2.97;1.50;;;;;;;;;;5031969;28;20041;-64
2023/03/26 21:43:17;;;;;;;4.55;1.45;;;;;;;;;;5032519;28;20136;-64
2023/03/26 21:45:44;;;;;;;11.05;1.80;;;;;;;;;;5032029;28;20025;-67
2023/03/26 21:48:10;;;;;;;8.27;1.40;;;;;;;;;;5031899;28;20025;-64
2023/03/26 21:50:37;;;;;;;8.13;1.42;;;;;;;;;;5031482;28;20112;-64
2023/03/26 21:53:03;;;;;;;6.57;1.52;;;;;;;;;;5032252;28;20029;-64
2023/03/26 21:55:34;;;;;;;8.23;2.35;;;;;;;;;;5032043;28;20021;-64
2023/03/26 21:58:21;;;;;;;5.38;1.38;;;;;;;;;;5031765;28;20508;-64
2023/03/26 22:01:06;;;;;;;6.13;1.58;;;;;;;;;;5030542;28;20049;-64
2023/03/26 22:03:38;;;;;;;6.30;1.42;;;;;;;;;;5031760;28;20091;-64
2023/03/26 22:06:13;;;;;;;6.10;1.60;;;;;;;;;;5031719;28;20532;-65
2023/03/26 22:08:40;;;;;;;4.72;1.50;;;;;;;;;;5031095;28;20025;-65
2023/03/26 22:11:07;;;;;;;15.60;1.77;;;;;;;;;;5031362;28;20021;-65
2023/03/26 22:13:39;;;;;;;1.55;1.30;;;;;;;;;;5031564;28;20029;-64
2023/03/26 22:16:06;;;;;;;4.88;1.33;;;;;;;;;;5031406;28;20025;-64
2023/03/26 22:18:32;;;;;;;6.53;1.63;;;;;;;;;;5031389;28;20378;-65
2023/03/26 22:20:59;;;;;;;6.47;1.73;;;;;;;;;;5031510;28;20033;-64
2023/03/26 22:23:32;;;;;;;11.55;2.00;;;;;;;;;;5030832;28;20095;-65
2023/03/26 22:25:59;;;;;;;5.20;1.33;;;;;;;;;;5031530;28;20148;-64
2023/03/26 22:28:25;;;;;;;4.93;1.30;;;;;;;;;;5031275;28;20527;-64
2023/03/26 22:30:51;;;;;;;6.55;1.60;;;;;;;;;;5031375;28;20018;-65
2023/03/26 22:33:17;;;;;;;7.53;1.70;;;;;;;;;;5031405;28;20148;-64
2023/03/26 22:35:44;;;;;;;6.22;1.55;;;;;;;;;;5029762;28;20089;-65
2023/03/26 22:38:10;;;;;;;4.70;1.55;;;;;;;;;;5031078;28;20105;-65
2023/03/26 22:40:36;;;;;;;4.95;1.48;;;;;;;;;;5029161;28;20038;-65
2023/03/26 22:43:03;;;;;;;8.23;1.70;;;;;;;;;;5031525;28;20029;-67
2023/03/26 22:45:29;;;;;;;6.28;1.10;;;;;;;;;;5031459;28;20033;-64
2023/03/26 22:47:56;;;;;;;2.13;1.35;;;;;;;;;;5031274;28;20025;-67
2023/03/26 22:50:23;;;;;;;3.45;1.75;;;;;;;;;;5031257;28;20112;-66
2023/03/26 22:52:49;;;;;;;4.50;1.52;;;;;;;;;;5029934;28;20566;-64
2023/03/26 22:55:15;;;;;;;6.32;1.60;;;;;;;;;;5031192;28;20021;-66
2023/03/26 22:57:41;;;;;;;4.90;1.50;;;;;;;;;;5030605;28;20172;-64
2023/03/26 23:00:15;;;;;;;8.27;1.75;;;;;;;;;;5031107;28;20049;-64
2023/03/26 23:02:43;;;;;;;6.40;2.00;;;;;;;;;;5031102;28;20026;-65
2023/03/26 23:05:10;;;;;;;5.90;1.50;;;;;;;;;;5031008;28;20032;-65
2023/03/26 23:07:36;;;;;;;5.95;1.80;;;;;;;;;;5030877;28;20018;-65
2023/03/26 23:10:02;;;;;;;9.35;1.88;;;;;;;;;;5030862;28;20113;-65
2023/03/26 23:12:28;;;;;;;6.20;1.90;;;;;;;;;;5030210;28;20061;-64
2023/03/26 23:14:54;;;;;;;3.15;1.30;;;;;;;;;;5031052;28;20111;-64
2023/03/26 23:17:21;;;;;;;6.50;1.90;;;;;;;;;;5030899;28;20018;-65
2023/03/26 23:19:47;;;;;;;3.53;1.50;;;;;;;;;;5030777;28;20044;-66
2023/03/26 23:22:13;;;;;;;5.32;1.48;;;;;;;;;;5030825;28;20064;-65
2023/03/26 23:24:39;;;;;;;8.10;2.30;;;;;;;;;;5030805;28;20022;-65
2023/03/26 23:27:05;;;;;;;3.10;1.70;;;;;;;;;;5031413;28;20378;-65
2023/03/26 23:29:32;;;;;;;7.45;2.67;;;;;;;;;;5034035;28;20421;-63
2023/03/26 23:31:58;;;;;;;10.18;1.77;;;;;;;;;;5034377;28;20478;-64
2023/03/26 23:34:24;;;;;;;5.18;1.67;;;;;;;;;;5034513;28;20029;-64
2023/03/26 23:36:51;;;;;;;11.95;1.95;;;;;;;;;;5033161;28;20032;-65
2023/03/26 23:39:18;;;;;;;7.50;2.38;;;;;;;;;;5034366;28;20029;-64
2023/03/26 23:41:44;;;;;;;6.43;1.73;;;;;;;;;;5034015;28;20057;-65
2023/03/26 23:44:13;;;;;;;6.25;2.47;;;;;;;;;;5034403;28;20026;-65
2023/03/26 23:46:40;;;;;;;7.78;1.92;;;;;;;;;;5033762;28;20037;-65
2023/03/26 23:49:06;;;;;;;6.82;1.77;;;;;;;;;;5034401;28;20021;-64
2023/03/26 23:51:34;;;;;;;5.40;1.65;;;;;;;;;;5034142;28;20030;-64
2023/03/26 23:54:01;;;;;;;6.28;1.92;;;;;;;;;;5034258;28;20037;-64
2023/03/26 23:56:27;;;;;;;8.40;2.28;;;;;;;;;;5034127;28;20103;-65
2023/03/26 23:58:54;;;;;;;5.97;1.98;;;;;;;;;;5032886;28;20176;-65
